Time;durP1;ratioP1;P1;durP2;ratioP2;P2;SDS_P1;SDS_P2;PMS_P1;PMS_P2;Temp;Humidity;BMP_temperature;BMP_pressure;BME280_temperature;BME280_humidity;BME280_pressure;Samples;Min_cycle;Max_cycle;Signal;HPM_P1;HPM_P2
2021/01/16 00:00:53;;;;;;;14.02;9.40;;;-2.10;92.00;;;;;;5079850;28;20249;-70
2021/01/16 00:03:19;;;;;;;12.15;9.30;;;-2.20;92.10;;;;;;5079601;28;20250;-71
2021/01/16 00:05:49;;;;;;;10.70;8.18;;;-2.30;92.00;;;;;;5064331;28;20203;-70
2021/01/16 00:08:18;;;;;;;16.27;7.70;;;-2.20;92.10;;;;;;5074138;28;20214;-71
2021/01/16 00:10:47;;;;;;;13.25;7.78;;;-2.30;92.30;;;;;;5077604;28;20280;-71
2021/01/16 00:13:15;;;;;;;12.32;8.40;;;-1.90;92.30;;;;;;5079714;28;20209;-71
2021/01/16 00:15:42;;;;;;;10.57;8.00;;;-1.00;92.70;;;;;;5079258;28;20681;-71
2021/01/16 00:18:13;;;;;;;17.27;9.45;;;-1.00;92.80;;;;;;5068831;28;20243;-71
2021/01/16 00:20:42;;;;;;;13.65;9.25;;;-2.40;92.30;;;;;;5076692;28;20203;-71
2021/01/16 00:23:10;;;;;;;13.45;9.05;;;-2.40;92.30;;;;;;5079672;28;20528;-72
2021/01/16 00:25:37;;;;;;;11.05;8.02;;;-2.30;92.20;;;;;;5079227;28;20521;-70
2021/01/16 00:28:05;;;;;;;12.13;8.80;;;-2.30;92.10;;;;;;5079709;28;20202;-70
2021/01/16 00:30:34;;;;;;;13.27;8.45;;;-2.30;92.20;;;;;;5072901;28;20207;-70
2021/01/16 00:33:02;;;;;;;7.38;5.93;;;-2.30;92.10;;;;;;5079232;28;20535;-70
2021/01/16 00:35:32;;;;;;;11.20;7.80;;;-2.40;92.00;;;;;;5081363;28;20196;-71
2021/01/16 00:37:59;;;;;;;15.02;8.23;;;-2.40;91.90;;;;;;5079307;28;20210;-72
2021/01/16 00:40:26;;;;;;;10.90;7.90;;;-0.60;92.30;;;;;;5075909;28;20211;-70
2021/01/16 00:42:55;;;;;;;9.75;7.30;;;-2.20;91.70;;;;;;5076355;28;20203;-71
2021/01/16 00:45:23;;;;;;;11.75;6.20;;;-2.10;91.60;;;;;;5078378;28;20199;-71
2021/01/16 00:47:50;;;;;;;10.75;6.78;;;-2.10;91.40;;;;;;5079056;28;20203;-70
2021/01/16 00:50:19;;;;;;;7.60;6.80;;;-0.60;91.70;;;;;;5079021;28;20211;-71
2021/01/16 00:52:56;;;;;;;11.68;6.10;;;-2.10;91.30;;;;;;5079844;28;20272;-70
2021/01/16 00:55:23;;;;;;;10.27;6.63;;;-1.00;91.70;;;;;;5080002;28;20206;-70
2021/01/16 00:57:54;;;;;;;7.13;6.40;;;-1.80;91.40;;;;;;5079062;28;20207;-70
2021/01/16 01:00:25;;;;;;;9.60;6.47;;;-2.00;91.30;;;;;;5066068;28;20221;-71
2021/01/16 01:02:51;;;;;;;9.75;6.57;;;-2.00;91.60;;;;;;5077936;28;20245;-71
2021/01/16 01:05:22;;;;;;;10.75;7.75;;;-2.00;91.70;;;;;;5078658;28;20245;-72
2021/01/16 01:07:51;;;;;;;8.27;6.45;;;-2.00;91.50;;;;;;5079547;28;20206;-70
2021/01/16 01:10:31;;;;;;;9.35;7.00;;;-1.90;91.60;;;;;;5078139;28;20404;-70
2021/01/16 01:12:58;;;;;;;11.23;8.88;;;-2.00;91.70;;;;;;5079339;28;20255;-71
2021/01/16 01:15:24;;;;;;;12.07;7.93;;;-2.00;91.80;;;;;;5077367;28;20209;-70
2021/01/16 01:17:58;;;;;;;12.90;7.25;;;-2.00;92.00;;;;;;5078937;28;20244;-71
2021/01/16 01:20:26;;;;;;;9.05;6.82;;;-1.90;91.80;;;;;;5072417;28;20215;-70
2021/01/16 01:22:53;;;;;;;8.95;7.05;;;-1.90;91.90;;;;;;5078826;28;20226;-71
2021/01/16 01:25:20;;;;;;;8.15;7.20;;;-2.00;92.20;;;;;;5078371;28;20222;-71
2021/01/16 01:27:57;;;;;;;9.93;7.65;;;-0.40;92.50;;;;;;5074519;28;20202;-71
2021/01/16 01:30:29;;;;;;;10.15;7.20;;;-1.90;92.10;;;;;;5075447;28;20207;-71
2021/01/16 01:32:57;;;;;;;11.68;6.95;;;-0.50;92.50;;;;;;5076970;28;20278;-72
2021/01/16 01:35:24;;;;;;;10.80;8.25;;;-1.80;91.90;;;;;;5077298;28;20225;-72
2021/01/16 01:37:57;;;;;;;10.00;7.25;;;-0.10;92.50;;;;;;5077396;28;20233;-71
2021/01/16 01:40:26;;;;;;;13.05;8.30;;;-1.80;92.10;;;;;;5078492;28;20445;-70
2021/01/16 01:42:55;;;;;;;11.10;7.72;;;-1.90;92.30;;;;;;5071095;28;20273;-70
2021/01/16 01:45:24;;;;;;;8.57;6.70;;;-1.90;92.30;;;;;;5072461;28;20199;-70
2021/01/16 01:47:51;;;;;;;12.93;7.75;;;-1.90;92.50;;;;;;5078168;28;20225;-71
2021/01/16 01:50:19;;;;;;;13.55;8.40;;;-1.50;92.50;;;;;;5078166;28;20218;-71
2021/01/16 01:52:49;;;;;;;11.50;8.25;;;-2.00;92.70;;;;;;5077766;28;20256;-70
2021/01/16 01:55:16;;;;;;;11.25;7.90;;;-1.60;92.80;;;;;;5078416;28;20238;-70
2021/01/16 01:57:45;;;;;;;10.68;7.75;;;-2.00;92.60;;;;;;5078606;28;20208;-71
2021/01/16 02:00:14;;;;;;;10.40;7.53;;;-1.10;92.80;;;;;;5079677;28;20207;-71
2021/01/16 02:02:42;;;;;;;10.77;8.15;;;-1.90;92.40;;;;;;5075865;28;20230;-71
2021/01/16 02:05:10;;;;;;;15.38;8.80;;;-0.80;92.90;;;;;;5077864;28;20520;-69
2021/01/16 02:07:38;;;;;;;13.30;9.48;;;-0.80;92.90;;;;;;5076259;28;20203;-72
2021/01/16 02:10:13;;;;;;;11.10;7.50;;;-1.10;93.20;;;;;;5068120;28;20261;-71
2021/01/16 02:12:41;;;;;;;9.98;7.18;;;-2.00;92.70;;;;;;5078274;28;20246;-71
2021/01/16 02:15:08;;;;;;;12.65;8.43;;;-2.00;92.60;;;;;;5075861;28;20463;-70
2021/01/16 02:17:41;;;;;;;12.90;8.43;;;-2.00;92.70;;;;;;5078271;28;20246;-71
2021/01/16 02:20:14;;;;;;;13.65;9.43;;;-2.00;92.70;;;;;;5077414;28;20500;-70
2021/01/16 02:23:04;;;;;;;12.77;8.10;;;-2.00;92.80;;;;;;5077264;28;20222;-71
2021/01/16 02:25:40;;;;;;;12.35;8.73;;;-2.00;92.80;;;;;;5077027;28;20217;-72
2021/01/16 02:28:18;;;;;;;14.15;8.15;;;-2.00;92.60;;;;;;5066402;28;20206;-72
2021/01/16 02:30:45;;;;;;;10.90;8.18;;;-2.00;92.70;;;;;;5076695;28;20365;-70
2021/01/16 02:33:17;;;;;;;10.45;7.65;;;-2.00;93.00;;;;;;5076678;28;20234;-70
2021/01/16 02:36:11;;;;;;;11.75;9.00;;;-1.90;92.60;;;;;;5075932;28;20510;-71
2021/01/16 02:39:15;;;;;;;10.38;7.57;;;-2.00;92.80;;;;;;5057896;28;20211;-71
2021/01/16 02:42:12;;;;;;;10.77;6.93;;;-2.00;92.60;;;;;;5059984;28;20235;-71
2021/01/16 02:44:39;;;;;;;11.90;8.88;;;-2.00;92.30;;;;;;5067869;28;20210;-71
2021/01/16 02:47:32;;;;;;;11.05;8.13;;;-2.00;92.70;;;;;;5076779;28;20224;-71
2021/01/16 02:50:05;;;;;;;11.52;7.55;;;-2.00;92.80;;;;;;5064485;28;20491;-70
2021/01/16 02:52:39;;;;;;;14.30;8.35;;;-1.90;92.60;;;;;;5077276;28;20210;-70
2021/01/16 02:55:07;;;;;;;9.70;8.40;;;-1.40;92.70;;;;;;5077234;28;20504;-71
2021/01/16 02:57:34;;;;;;;13.68;8.00;;;-2.10;92.50;;;;;;5077487;28;20392;-72
2021/01/16 03:00:02;;;;;;;11.30;8.40;;;-2.10;92.50;;;;;;5071710;28;20202;-71
2021/01/16 03:02:29;;;;;;;8.73;6.60;;;-2.10;92.50;;;;;;5076305;28;20235;-72
2021/01/16 03:04:56;;;;;;;9.75;7.10;;;-2.10;92.60;;;;;;5077385;28;20203;-71
2021/01/16 03:07:25;;;;;;;11.70;7.85;;;-2.10;92.50;;;;;;5075922;28;20206;-71
2021/01/16 03:09:53;;;;;;;12.32;7.43;;;-2.10;92.50;;;;;;5073833;28;20555;-70
2021/01/16 03:12:20;;;;;;;11.25;7.40;;;-0.70;93.00;;;;;;5076561;28;20587;-70
2021/01/16 03:15:07;;;;;;;12.07;7.68;;;-2.10;92.50;;;;;;5077076;28;20207;-71
2021/01/16 03:17:57;;;;;;;14.15;7.88;;;-2.10;92.50;;;;;;5066268;28;20210;-70
2021/01/16 03:20:29;;;;;;;11.73;7.50;;;-2.20;92.30;;;;;;5076568;28;20199;-71
2021/01/16 03:22:58;;;;;;;11.05;7.95;;;-1.70;92.60;;;;;;5079864;28;20226;-72
2021/01/16 03:25:26;;;;;;;10.38;6.85;;;-2.30;92.80;;;;;;5080731;28;20411;-71
2021/01/16 03:27:54;;;;;;;9.40;7.65;;;-0.90;93.00;;;;;;5072510;28;20212;-71
2021/01/16 03:30:22;;;;;;;8.82;7.90;;;-1.80;92.80;;;;;;5077188;28;20215;-70
2021/01/16 03:32:50;;;;;;;9.73;8.05;;;-2.20;92.60;;;;;;5080889;28;20214;-72
2021/01/16 03:35:23;;;;;;;13.77;8.85;;;-2.20;92.40;;;;;;5068482;28;20211;-71
2021/01/16 03:37:54;;;;;;;9.98;7.25;;;-2.20;92.70;;;;;;5069028;28;20256;-72
2021/01/16 03:40:21;;;;;;;11.73;9.38;;;-2.20;92.70;;;;;;5080709;28;20211;-71
2021/01/16 03:42:48;;;;;;;13.88;8.90;;;-1.60;93.00;;;;;;5080500;28;20408;-70
2021/01/16 03:45:22;;;;;;;14.00;9.55;;;-2.20;92.70;;;;;;5080741;28;20206;-70
2021/01/16 03:47:49;;;;;;;13.25;8.77;;;-2.20;92.70;;;;;;5080187;28;20210;-72
2021/01/16 03:50:21;;;;;;;11.50;8.80;;;-0.70;93.00;;;;;;5080564;28;20210;-71
2021/01/16 03:52:47;;;;;;;16.83;9.13;;;-2.20;92.70;;;;;;5080430;28;20211;-71
2021/01/16 03:55:14;;;;;;;9.93;7.22;;;-2.20;92.60;;;;;;5077079;28;20218;-70
2021/01/16 03:57:41;;;;;;;17.20;9.10;;;-2.10;92.60;;;;;;5080451;28;20207;-71
2021/01/16 04:00:09;;;;;;;8.65;7.70;;;-2.20;92.60;;;;;;5080475;28;20218;-70
2021/01/16 04:02:36;;;;;;;9.18;7.80;;;-2.20;92.70;;;;;;5079968;28;20264;-70
2021/01/16 04:05:04;;;;;;;13.73;9.88;;;-1.00;93.00;;;;;;5080393;28;20302;-71
2021/01/16 04:07:31;;;;;;;13.35;9.60;;;-2.20;92.80;;;;;;5077723;28;20199;-71
2021/01/16 04:10:00;;;;;;;12.55;8.50;;;-2.10;92.50;;;;;;5079952;28;20788;-71
2021/01/16 04:12:30;;;;;;;17.10;8.13;;;-2.10;92.80;;;;;;5081079;28;20247;-71
2021/01/16 04:14:57;;;;;;;11.13;8.73;;;-1.10;92.90;;;;;;5080098;28;20378;-72
2021/01/16 04:17:24;;;;;;;10.30;8.00;;;-2.20;92.60;;;;;;5067160;28;20227;-71
2021/01/16 04:19:50;;;;;;;14.50;9.13;;;-2.20;92.50;;;;;;5080539;28;20534;-71
2021/01/16 04:22:18;;;;;;;10.93;8.55;;;-2.20;92.60;;;;;;5065739;28;20289;-71
2021/01/16 04:24:45;;;;;;;10.10;7.10;;;-2.20;92.60;;;;;;5080205;28;20485;-70
2021/01/16 04:27:11;;;;;;;11.23;7.50;;;-2.20;92.70;;;;;;5078043;28;20207;-70
2021/01/16 04:29:38;;;;;;;11.95;8.35;;;-1.50;92.90;;;;;;5069570;28;20692;-70
2021/01/16 04:32:05;;;;;;;12.68;9.23;;;-2.20;92.70;;;;;;5079895;28;20517;-71
2021/01/16 04:34:31;;;;;;;13.38;9.45;;;-2.30;92.60;;;;;;5065793;28;20205;-71
2021/01/16 04:36:58;;;;;;;10.02;8.68;;;-1.30;93.10;;;;;;5068296;28;20207;-71
2021/01/16 04:39:25;;;;;;;9.63;8.48;;;-1.20;92.90;;;;;;5080118;28;20209;-71
2021/01/16 04:41:53;;;;;;;10.38;7.68;;;-1.20;93.20;;;;;;5079096;28;20276;-71
2021/01/16 04:44:22;;;;;;;11.27;8.25;;;-2.30;93.00;;;;;;5079246;28;20211;-70
2021/01/16 04:46:54;;;;;;;12.68;10.07;;;-2.40;93.00;;;;;;5080791;28;20213;-70
2021/01/16 04:49:21;;;;;;;9.35;8.35;;;-0.90;93.50;;;;;;5079551;28;20207;-71
2021/01/16 04:51:52;;;;;;;12.27;9.13;;;-0.80;93.40;;;;;;5080309;28;20497;-71
2021/01/16 04:54:19;;;;;;;9.23;7.80;;;-2.30;93.10;;;;;;5079123;28;20229;-69
2021/01/16 04:56:48;;;;;;;9.43;8.10;;;-1.10;93.30;;;;;;5074503;28;20209;-70
2021/01/16 04:59:15;;;;;;;13.68;9.27;;;-1.00;93.40;;;;;;5078254;28;20233;-69
2021/01/16 05:01:45;;;;;;;11.65;8.05;;;-2.50;93.20;;;;;;5078404;28;20240;-68
2021/01/16 05:04:15;;;;;;;11.55;7.88;;;-2.40;93.30;;;;;;5079482;28;20248;-69
2021/01/16 05:06:45;;;;;;;13.65;10.43;;;-2.40;93.50;;;;;;5076714;28;20207;-68
2021/01/16 05:09:13;;;;;;;11.68;7.70;;;-1.50;93.90;;;;;;5071958;28;20202;-69
2021/01/16 05:11:48;;;;;;;14.98;10.75;;;-1.20;94.30;;;;;;5079127;28;20355;-69
2021/01/16 05:14:17;;;;;;;15.90;10.30;;;-2.50;93.80;;;;;;5079139;28;20673;-69
2021/01/16 05:17:04;;;;;;;15.23;10.35;;;-2.40;94.00;;;;;;5078403;28;20206;-69
2021/01/16 05:19:35;;;;;;;11.15;9.38;;;-2.40;93.90;;;;;;5079449;28;20217;-69
2021/01/16 05:22:02;;;;;;;14.13;10.65;;;-1.00;94.10;;;;;;5078418;28;20311;-69
2021/01/16 05:24:29;;;;;;;12.80;8.88;;;-2.50;93.80;;;;;;5079291;28;20219;-69
2021/01/16 05:27:04;;;;;;;19.90;9.23;;;-2.40;93.70;;;;;;5078180;28;20207;-70
2021/01/16 05:29:33;;;;;;;10.75;9.45;;;-2.40;93.70;;;;;;5078691;28;20508;-69
2021/01/16 05:32:03;;;;;;;12.98;9.27;;;-2.40;93.70;;;;;;5078212;28;20327;-70
2021/01/16 05:34:31;;;;;;;12.43;8.85;;;-1.10;93.90;;;;;;5079033;28;20218;-69
2021/01/16 05:36:59;;;;;;;12.68;10.00;;;-2.40;93.40;;;;;;5078973;28;20516;-69
2021/01/16 05:39:30;;;;;;;13.00;10.52;;;-2.40;93.40;;;;;;5078841;28;20214;-69
2021/01/16 05:42:06;;;;;;;13.30;10.13;;;-2.40;93.50;;;;;;5078656;28;20227;-69
2021/01/16 05:44:35;;;;;;;10.82;9.45;;;-2.40;93.50;;;;;;5064445;28;20207;-69
2021/01/16 05:47:04;;;;;;;13.88;9.77;;;-2.40;93.30;;;;;;5077551;28;20404;-69
2021/01/16 05:49:32;;;;;;;13.10;8.75;;;-1.20;93.50;;;;;;5077955;28;20317;-68
2021/01/16 05:52:05;;;;;;;11.43;9.35;;;-2.40;93.10;;;;;;5078311;28;20211;-69
2021/01/16 05:54:33;;;;;;;11.73;10.30;;;-2.40;93.20;;;;;;5077956;28;20202;-67
2021/01/16 05:57:01;;;;;;;11.57;9.23;;;-2.40;93.20;;;;;;5078135;28;20359;-67
2021/01/16 05:59:31;;;;;;;16.08;9.68;;;-2.40;93.00;;;;;;5078868;28;20225;-68
2021/01/16 06:02:02;;;;;;;11.55;8.93;;;-1.50;93.20;;;;;;5078526;28;20231;-68
2021/01/16 06:04:33;;;;;;;10.30;8.15;;;-1.20;93.20;;;;;;5077493;28;20210;-68
2021/01/16 06:07:07;;;;;;;11.43;8.00;;;-0.80;93.60;;;;;;5077534;28;20505;-68
2021/01/16 06:09:36;;;;;;;14.15;9.95;;;-2.40;92.90;;;;;;5079171;28;20205;-68
2021/01/16 06:12:06;;;;;;;11.63;9.77;;;-0.90;93.60;;;;;;5077937;28;20307;-68
2021/01/16 06:14:42;;;;;;;14.52;10.85;;;-2.40;93.10;;;;;;5078366;28;20247;-68
2021/01/16 06:17:17;;;;;;;13.23;10.68;;;-1.20;93.50;;;;;;5077242;28;20269;-68
2021/01/16 06:19:47;;;;;;;9.60;8.57;;;-0.70;93.60;;;;;;5077888;28;20309;-69
2021/01/16 06:22:17;;;;;;;13.02;8.00;;;-1.80;93.10;;;;;;5058888;28;20262;-69
2021/01/16 06:24:50;;;;;;;13.20;9.68;;;-2.40;93.10;;;;;;5069422;28;20218;-68
2021/01/16 06:27:23;;;;;;;12.65;9.43;;;-2.50;93.10;;;;;;5077344;28;20210;-68
2021/01/16 06:30:00;;;;;;;12.43;10.45;;;-2.50;93.00;;;;;;5067618;28;20215;-68
2021/01/16 06:32:28;;;;;;;12.00;9.48;;;-2.50;93.10;;;;;;5071347;28;20214;-68
2021/01/16 06:35:09;;;;;;;11.55;9.75;;;-2.50;92.80;;;;;;5068907;28;20720;-68
2021/01/16 06:37:42;;;;;;;10.27;8.43;;;-2.50;92.80;;;;;;5072583;28;20211;-68
2021/01/16 06:40:10;;;;;;;12.10;7.80;;;-1.20;93.00;;;;;;5069862;28;20245;-67
2021/01/16 06:42:38;;;;;;;11.43;8.90;;;-2.50;92.80;;;;;;5076880;28;20224;-67
2021/01/16 06:45:28;;;;;;;15.65;8.70;;;-2.50;92.70;;;;;;5077565;28;20443;-67
2021/01/16 06:47:59;;;;;;;12.82;9.40;;;-2.50;92.50;;;;;;5077830;28;20219;-67
2021/01/16 06:50:28;;;;;;;12.50;9.98;;;-2.60;92.70;;;;;;5077393;28;20211;-67
2021/01/16 06:52:55;;;;;;;8.65;7.75;;;-1.00;93.00;;;;;;5077250;28;20232;-65
2021/01/16 06:55:22;;;;;;;12.70;8.73;;;-2.60;92.40;;;;;;5077431;28;20204;-67
2021/01/16 06:57:48;;;;;;;9.95;8.70;;;-2.60;92.50;;;;;;5076782;28;20290;-66
2021/01/16 07:00:16;;;;;;;8.63;7.72;;;-1.10;92.70;;;;;;5077329;28;20206;-66
2021/01/16 07:02:47;;;;;;;13.43;8.68;;;-2.70;92.20;;;;;;5075418;28;20559;-68
2021/01/16 07:05:17;;;;;;;15.18;10.38;;;-2.70;92.10;;;;;;5078066;28;20229;-67
2021/01/16 07:07:47;;;;;;;13.15;8.10;;;-2.70;92.40;;;;;;5076538;28;20211;-67
2021/01/16 07:10:21;;;;;;;10.55;8.55;;;-2.60;92.40;;;;;;5076467;28;20233;-67
2021/01/16 07:12:52;;;;;;;17.05;7.88;;;-2.60;92.10;;;;;;5067543;28;20479;-67
2021/01/16 07:15:20;;;;;;;12.32;9.23;;;-2.70;92.30;;;;;;5064228;28;20270;-68
2021/01/16 07:17:48;;;;;;;11.18;9.10;;;-2.70;92.30;;;;;;5071379;28;20512;-68
2021/01/16 07:20:15;;;;;;;11.93;8.45;;;-1.30;92.50;;;;;;5067652;28;20210;-68
2021/01/16 07:22:44;;;;;;;10.90;9.35;;;-1.50;92.50;;;;;;5069133;28;20436;-67
2021/01/16 07:25:14;;;;;;;12.70;8.77;;;-2.60;92.00;;;;;;5074211;28;20203;-67
2021/01/16 07:27:42;;;;;;;10.15;8.20;;;-2.60;91.80;;;;;;5076935;28;20459;-67
2021/01/16 07:30:11;;;;;;;12.95;9.00;;;-2.70;91.90;;;;;;5076658;28;20210;-67
2021/01/16 07:32:51;;;;;;;10.40;8.85;;;-2.60;91.70;;;;;;5066489;28;20207;-67
2021/01/16 07:35:23;;;;;;;9.57;7.60;;;-2.70;91.80;;;;;;5077270;28;20207;-66
2021/01/16 07:37:52;;;;;;;13.70;8.52;;;-2.70;91.80;;;;;;5066957;28;20203;-66
2021/01/16 07:40:28;;;;;;;13.60;9.25;;;-2.70;91.60;;;;;;5076616;28;20378;-66
2021/01/16 07:43:00;;;;;;;12.95;8.57;;;-2.70;91.60;;;;;;5066134;28;20214;-66
2021/01/16 07:45:34;;;;;;;10.20;8.30;;;-2.00;91.40;;;;;;5070418;28;20207;-66
2021/01/16 07:48:04;;;;;;;10.15;7.85;;;-2.70;91.20;;;;;;5076433;28;20413;-66
2021/01/16 07:50:33;;;;;;;8.80;7.90;;;-2.60;91.20;;;;;;5076737;28;20211;-66
2021/01/16 07:53:04;;;;;;;8.75;7.88;;;-2.10;91.50;;;;;;5076271;28;20207;-66
2021/01/16 07:55:34;;;;;;;7.45;6.65;;;-2.60;91.10;;;;;;5076712;28;20231;-67
2021/01/16 07:58:30;;;;;;;9.20;8.30;;;-2.70;90.90;;;;;;5074906;28;20432;-67
2021/01/16 08:01:14;;;;;;;10.52;7.18;;;-2.80;90.80;;;;;;5076306;28;20734;-67
2021/01/16 08:03:59;;;;;;;11.55;8.00;;;-2.90;90.70;;;;;;5076880;28;20586;-67
2021/01/16 08:06:32;;;;;;;9.88;7.35;;;-3.00;90.70;;;;;;5076237;28;20756;-67
2021/01/16 08:09:11;;;;;;;8.32;6.80;;;-3.10;91.10;;;;;;5078268;28;20242;-67
2021/01/16 08:11:48;;;;;;;8.45;6.25;;;-3.00;90.70;;;;;;5079576;28;20246;-67
2021/01/16 08:14:21;;;;;;;8.75;6.63;;;-1.50;91.10;;;;;;5079372;28;20211;-66
2021/01/16 08:16:56;;;;;;;8.82;7.15;;;-3.00;90.60;;;;;;5079667;28;20214;-67
2021/01/16 08:19:46;;;;;;;8.95;6.45;;;-3.00;90.40;;;;;;5080349;28;20416;-67
2021/01/16 08:22:17;;;;;;;7.75;6.65;;;-3.00;90.30;;;;;;5075029;28;20595;-66
2021/01/16 08:25:14;;;;;;;7.80;6.25;;;-3.00;90.40;;;;;;5067654;28;20203;-66
2021/01/16 08:27:48;;;;;;;10.35;6.65;;;-2.90;90.40;;;;;;5058589;28;20501;-66
2021/01/16 08:30:17;;;;;;;8.77;6.20;;;-2.80;90.00;;;;;;5073632;28;20230;-67
2021/01/16 08:33:04;;;;;;;8.95;6.38;;;-2.70;89.00;;;;;;5079987;28;20210;-68
2021/01/16 08:35:37;;;;;;;11.75;7.90;;;-2.60;88.70;;;;;;5075463;28;20497;-67
2021/01/16 08:38:16;;;;;;;8.45;6.78;;;-2.50;87.50;;;;;;5078875;28;20203;-67
2021/01/16 08:40:53;;;;;;;7.72;6.13;;;-2.30;86.70;;;;;;5079859;28;20213;-66
2021/01/16 08:43:44;;;;;;;8.63;6.25;;;-0.90;86.00;;;;;;5076266;28;20612;-66
2021/01/16 08:46:14;;;;;;;10.07;6.60;;;-1.80;84.80;;;;;;5078970;28;20203;-66
2021/01/16 08:48:57;;;;;;;8.27;5.65;;;-2.00;84.80;;;;;;5079602;28;20439;-67
2021/01/16 08:51:30;;;;;;;8.80;6.55;;;-2.20;84.00;;;;;;5078781;28;20270;-67
2021/01/16 08:54:19;;;;;;;9.93;5.40;;;-2.10;84.80;;;;;;5077807;28;20227;-67
2021/01/16 08:57:11;;;;;;;7.40;5.47;;;-2.10;85.30;;;;;;5073041;28;20199;-66
2021/01/16 08:59:39;;;;;;;7.00;5.10;;;-1.90;84.10;;;;;;5078865;28;20221;-67
2021/01/16 09:02:10;;;;;;;7.43;5.32;;;-0.20;84.40;;;;;;5079067;28;20239;-66
2021/01/16 09:04:41;;;;;;;9.82;5.88;;;-1.90;83.20;;;;;;5078601;28;20729;-66
2021/01/16 09:07:22;;;;;;;8.25;5.45;;;-1.90;82.70;;;;;;5077954;28;20408;-66
2021/01/16 09:09:54;;;;;;;6.10;5.28;;;-1.90;82.90;;;;;;5078701;28;20252;-67
2021/01/16 09:12:32;;;;;;;6.40;4.80;;;-1.00;84.10;;;;;;5072937;28;20239;-66
2021/01/16 09:15:21;;;;;;;11.73;5.25;;;-0.30;83.60;;;;;;5067697;28;20401;-66
2021/01/16 09:18:08;;;;;;;8.77;6.25;;;-2.00;83.10;;;;;;5072245;28;20272;-66
2021/01/16 09:20:37;;;;;;;11.57;6.70;;;-2.00;83.20;;;;;;5069116;28;20203;-66
2021/01/16 09:23:19;;;;;;;8.32;5.57;;;-1.80;83.20;;;;;;5068926;28;20246;-67
2021/01/16 09:25:47;;;;;;;7.32;6.60;;;-1.90;83.60;;;;;;5078282;28;20207;-67
2021/01/16 09:28:14;;;;;;;6.78;5.30;;;-1.90;83.70;;;;;;5078646;28;20215;-66
2021/01/16 09:30:40;;;;;;;8.45;6.10;;;-0.60;83.90;;;;;;5077990;28;20207;-67
2021/01/16 09:33:24;;;;;;;7.07;6.38;;;-1.80;83.40;;;;;;5078680;28;20210;-66
2021/01/16 09:35:51;;;;;;;10.48;6.00;;;-1.60;83.70;;;;;;5078223;28;20221;-67
2021/01/16 09:38:19;;;;;;;6.20;4.45;;;-1.40;83.20;;;;;;5078230;28;20235;-68
2021/01/16 09:40:47;;;;;;;10.55;7.38;;;0.00;83.80;;;;;;5077946;28;20275;-67
2021/01/16 09:43:19;;;;;;;8.15;5.35;;;0.50;83.60;;;;;;5077956;28;20964;-67
2021/01/16 09:45:55;;;;;;;8.68;5.95;;;-0.60;82.50;;;;;;5077423;28;20366;-67
2021/01/16 09:48:33;;;;;;;5.32;4.50;;;-1.10;82.20;;;;;;5071786;28;20201;-67
2021/01/16 09:51:02;;;;;;;9.95;7.30;;;-1.00;81.70;;;;;;5071502;28;20493;-66
2021/01/16 09:53:29;;;;;;;7.72;4.88;;;-1.00;82.70;;;;;;5078059;28;20523;-68
2021/01/16 09:55:57;;;;;;;7.00;5.78;;;-0.90;82.40;;;;;;5071765;28;20213;-66
2021/01/16 09:58:40;;;;;;;7.20;5.15;;;-0.80;82.00;;;;;;5078383;28;20211;-66
2021/01/16 10:01:23;;;;;;;6.72;5.95;;;-1.00;82.90;;;;;;5077594;28;20234;-66
2021/01/16 10:03:52;;;;;;;13.43;9.73;;;-1.00;83.80;;;;;;5070415;28;20240;-67
2021/01/16 10:06:19;;;;;;;9.70;6.65;;;-1.10;84.00;;;;;;5077523;28;20274;-66
2021/01/16 10:08:47;;;;;;;11.80;7.68;;;-1.00;84.00;;;;;;5074261;28;20196;-67
2021/01/16 10:11:34;;;;;;;7.13;5.07;;;-0.90;84.10;;;;;;5073565;28;20238;-67
2021/01/16 10:14:34;;;;;;;8.75;7.40;;;-1.00;82.80;;;;;;5063194;28;20244;-67
2021/01/16 10:17:10;;;;;;;10.52;8.32;;;-1.00;83.50;;;;;;5075689;28;20289;-67
2021/01/16 10:19:38;;;;;;;12.18;7.97;;;-1.20;86.10;;;;;;5079406;28;20207;-67
2021/01/16 10:22:10;;;;;;;9.63;6.88;;;-1.00;86.40;;;;;;5073908;28;20238;-68
2021/01/16 10:24:44;;;;;;;8.57;6.55;;;-0.80;84.50;;;;;;5068701;28;20207;-67
2021/01/16 10:27:10;;;;;;;11.23;8.05;;;1.20;85.90;;;;;;5076989;28;20207;-67
2021/01/16 10:29:40;;;;;;;7.93;6.45;;;-0.70;84.70;;;;;;5077093;28;20207;-67
2021/01/16 10:32:23;;;;;;;13.10;7.55;;;-0.90;85.70;;;;;;5071180;28;20207;-67
2021/01/16 10:34:50;;;;;;;7.38;6.00;;;-1.00;86.70;;;;;;5076752;28;20206;-67
2021/01/16 10:37:18;;;;;;;9.77;6.70;;;-0.30;85.70;;;;;;5076796;28;20270;-66
2021/01/16 10:39:48;;;;;;;9.02;6.35;;;-0.80;84.80;;;;;;5077097;28;20211;-67
2021/01/16 10:42:16;;;;;;;13.68;7.53;;;-0.90;85.50;;;;;;5076421;28;20244;-67
2021/01/16 10:44:44;;;;;;;13.80;7.95;;;-0.90;86.80;;;;;;5077506;28;20266;-66
2021/01/16 10:47:33;;;;;;;10.55;6.53;;;-0.90;86.20;;;;;;5074551;28;20268;-67
2021/01/16 10:50:27;;;;;;;10.40;8.73;;;-0.90;86.70;;;;;;5066864;28;20214;-67
2021/01/16 10:53:01;;;;;;;9.00;6.68;;;-0.90;87.50;;;;;;5076737;28;20516;-67
2021/01/16 10:55:54;;;;;;;9.90;7.65;;;-1.10;88.30;;;;;;5077159;28;20408;-67
2021/01/16 10:58:22;;;;;;;13.90;6.95;;;-0.90;87.60;;;;;;5076164;28;20203;-67
2021/01/16 11:00:54;;;;;;;5.70;4.95;;;-0.80;86.50;;;;;;5065639;28;20601;-67
2021/01/16 11:03:27;;;;;;;10.32;6.15;;;0.70;86.90;;;;;;5056737;28;20519;-68
2021/01/16 11:05:56;;;;;;;5.40;4.90;;;-0.90;86.30;;;;;;5062411;28;20214;-67
2021/01/16 11:08:27;;;;;;;8.85;5.97;;;-0.30;87.50;;;;;;5059516;28;20211;-67
2021/01/16 11:10:55;;;;;;;9.73;5.95;;;-0.40;87.50;;;;;;5059332;28;20199;-67
2021/01/16 11:13:27;;;;;;;8.93;6.90;;;-0.20;86.90;;;;;;5057511;28;20551;-67
2021/01/16 11:16:11;;;;;;;9.10;5.65;;;-1.00;88.10;;;;;;5068843;28;20540;-67
2021/01/16 11:18:43;;;;;;;9.18;6.47;;;-0.80;87.80;;;;;;5074462;28;20262;-67
2021/01/16 11:21:30;;;;;;;7.55;6.13;;;-0.80;86.60;;;;;;5076587;28;20240;-66
2021/01/16 11:24:31;;;;;;;10.75;5.25;;;-0.70;85.60;;;;;;5076588;28;20260;-67
2021/01/16 11:27:02;;;;;;;7.22;6.05;;;-0.50;86.20;;;;;;5075130;28;20198;-67
2021/01/16 11:29:39;;;;;;;8.85;6.20;;;-0.30;86.50;;;;;;5076819;28;20513;-66
2021/01/16 11:32:20;;;;;;;10.35;6.57;;;0.40;87.00;;;;;;5076650;28;20512;-67
2021/01/16 11:35:05;;;;;;;11.15;8.20;;;-0.40;85.70;;;;;;5076304;28;20198;-67
2021/01/16 11:37:44;;;;;;;10.57;6.93;;;-0.20;85.40;;;;;;5076813;28;20191;-68
2021/01/16 11:40:26;;;;;;;7.18;6.20;;;-0.10;83.90;;;;;;5077114;28;20252;-67
2021/01/16 11:43:06;;;;;;;7.40;5.90;;;0.00;84.50;;;;;;5064145;28;20218;-67
2021/01/16 11:45:33;;;;;;;12.18;9.48;;;-0.60;90.90;;;;;;5079760;28;20198;-67
2021/01/16 11:48:02;;;;;;;7.78;6.03;;;-0.50;85.80;;;;;;5066687;28;20567;-66
2021/01/16 11:50:31;;;;;;;10.18;7.40;;;-0.60;85.20;;;;;;5080881;28;20211;-66
2021/01/16 11:53:09;;;;;;;10.23;7.88;;;-0.80;86.70;;;;;;5075405;28;20270;-66
2021/01/16 11:55:36;;;;;;;14.10;11.27;;;-0.90;87.20;;;;;;5079959;28;20211;-66
2021/01/16 11:58:03;;;;;;;16.88;9.60;;;-0.10;88.30;;;;;;5071393;28;20203;-67
2021/01/16 12:00:32;;;;;;;17.02;10.32;;;-1.10;87.60;;;;;;5072395;28;20230;-66
2021/01/16 12:03:16;;;;;;;13.25;8.35;;;0.40;88.40;;;;;;5073511;28;20223;-67
2021/01/16 12:05:43;;;;;;;13.93;8.77;;;-1.00;87.10;;;;;;5080138;28;20202;-67
2021/01/16 12:08:12;;;;;;;11.65;7.13;;;0.40;90.00;;;;;;5078996;28;20203;-68
2021/01/16 12:10:40;;;;;;;10.43;7.25;;;-0.90;88.30;;;;;;5079551;28;20205;-68
2021/01/16 12:13:11;;;;;;;11.00;7.10;;;-1.30;88.30;;;;;;5061758;28;20214;-67
2021/01/16 12:15:38;;;;;;;10.95;8.70;;;-1.30;88.40;;;;;;5078034;28;20203;-67
2021/01/16 12:18:06;;;;;;;12.25;8.38;;;-1.30;89.00;;;;;;5079774;28;20210;-67
2021/01/16 12:20:33;;;;;;;12.52;9.23;;;-1.40;89.20;;;;;;5079149;28;20263;-67
2021/01/16 12:23:01;;;;;;;10.20;8.68;;;-1.30;90.40;;;;;;5071196;28;20227;-67
2021/01/16 12:25:35;;;;;;;11.00;7.55;;;-0.20;90.40;;;;;;5076052;28;20375;-67
2021/01/16 12:28:12;;;;;;;11.32;8.07;;;-1.50;90.40;;;;;;5079564;28;20271;-68
2021/01/16 12:30:42;;;;;;;14.23;8.75;;;-0.50;90.80;;;;;;5079458;28;20283;-67
2021/01/16 12:33:09;;;;;;;11.75;8.30;;;-1.30;90.80;;;;;;5079477;28;20572;-67
2021/01/16 12:35:35;;;;;;;18.30;12.10;;;0.00;90.70;;;;;;5079464;28;20209;-67
2021/01/16 12:38:02;;;;;;;14.20;10.57;;;-1.20;90.20;;;;;;5080290;28;20199;-67
2021/01/16 12:40:29;;;;;;;14.38;11.70;;;-0.80;90.30;;;;;;5068596;28;20492;-67
2021/01/16 12:42:56;;;;;;;12.60;9.50;;;-1.30;90.70;;;;;;5069661;28;20223;-68
2021/01/16 12:45:24;;;;;;;15.60;10.32;;;-0.20;91.10;;;;;;5061630;28;20545;-67
2021/01/16 12:47:53;;;;;;;12.85;8.50;;;-0.70;90.40;;;;;;5078551;28;20203;-68
2021/01/16 12:50:24;;;;;;;11.43;8.85;;;-1.20;90.30;;;;;;5079055;28;20413;-67
2021/01/16 12:52:55;;;;;;;12.93;10.15;;;-1.20;90.60;;;;;;5078618;28;20411;-67
2021/01/16 12:55:24;;;;;;;11.10;8.68;;;-1.20;90.80;;;;;;5078477;28;20211;-66
2021/01/16 12:57:55;;;;;;;8.90;7.68;;;-1.40;90.40;;;;;;5078481;28;20203;-67
2021/01/16 13:00:27;;;;;;;14.32;9.18;;;-1.50;90.40;;;;;;5073273;28;20214;-67
2021/01/16 13:02:57;;;;;;;14.50;10.77;;;-1.60;90.80;;;;;;5076586;28;20254;-68
2021/01/16 13:05:30;;;;;;;16.13;9.70;;;-1.50;90.90;;;;;;5080511;28;20211;-67